Flight Track Log - Related Links

Times and Time Zones

All times are in EDT time to prevent confusion due to time zone crossing. See the SVA1539 flight status page for this flight to view local times or setup timezone preferences in your user account.

Time Position Orientation Groundspeed Altitude Reporting Facility
EDT Latitude Longitude Course Direction KTS MPH feet Rate Location/Type
Tue 02:19:15 PM 26.0820 43.6589 292° West  Level Estimated
Tue 02:20:15 PM 26.1194 43.5540 292° West  Level Estimated
Tue 02:21:15 PM 26.1566 43.4490 292° West  Level Estimated
Tue 02:22:15 PM 26.1938 43.3439 291° West  Level Estimated
Tue 02:23:15 PM 26.2309 43.2387 291° West  Level Estimated
Tue 02:24:15 PM 26.2679 43.1335 291° West  Level Estimated
Tue 02:25:15 PM 26.3048 43.0283 291° West  Level Estimated
Tue 02:26:15 PM 26.3417 42.9229 291° West  Level Estimated
Tue 02:27:15 PM 26.3784 42.8175 291° West  Level Estimated
Tue 02:28:15 PM 26.4151 42.7120 291° West  Level Estimated
Tue 02:29:15 PM 26.4518 42.6065 291° West  Level Estimated
Tue 02:30:15 PM 26.4883 42.5009 291° West  Level Estimated
Tue 02:31:15 PM 26.5248 42.3952 291° West  Level Estimated
Tue 02:32:15 PM 26.5612 42.2895 291° West  Level Estimated
Tue 02:33:15 PM 26.5975 42.1837 291° West  Level Estimated
Tue 02:34:15 PM 26.6338 42.0778 291° West  Level Estimated
Tue 02:35:15 PM 26.6699 41.9718 291° West  Level Estimated
Tue 02:36:15 PM 26.7060 41.8658 291° West  Level Estimated
Tue 02:37:15 PM 26.7420 41.7598 291° West  Level Estimated
Tue 02:38:15 PM 26.7779 41.6536 291° West  Level Estimated
Tue 02:39:15 PM 26.8137 41.5474 291° West  Level Estimated
Tue 02:40:15 PM 26.8495 41.4411 291° West  Level Estimated
Tue 02:41:15 PM 26.8852 41.3348 291° West  Level Estimated
Tue 02:42:15 PM 26.9208 41.2284 291° West  Level Estimated
Tue 02:43:15 PM 26.9563 41.1219 290° West  Level Estimated
Tue 02:44:15 PM 26.9918 41.0153 290° West  Level Estimated
Tue 02:45:15 PM 27.0272 40.9087 290° West  Level Estimated
Tue 02:46:15 PM 27.0625 40.8020 290° West  Level Estimated
Tue 02:47:15 PM 27.0977 40.6953 290° West  Level Estimated
Tue 02:48:15 PM 27.1328 40.5885 290° West  Level Estimated
Tue 02:49:15 PM 27.1678 40.4816 290° West  Level Estimated
Tue 02:50:15 PM 27.2028 40.3746 290° West  Level Estimated
Tue 02:51:15 PM 27.2377 40.2676 290° West  Level Estimated
Tue 02:52:15 PM 27.2725 40.1605 290° West  Level Estimated
Tue 02:53:15 PM 27.3072 40.0534 290° West  Level Estimated
Tue 02:54:15 PM 27.3418 39.9462 290° West  Level Estimated
Tue 02:55:15 PM 27.3764 39.8389 290° West  Level Estimated
Tue 02:56:15 PM 27.4108 39.7315 290° West  Level Estimated
Tue 02:57:15 PM 27.4452 39.6241 290° West  Level Estimated
Tue 02:58:15 PM 27.4795 39.5166 290° West  Level Estimated
Tue 02:59:15 PM 27.5138 39.4091 290° West  Level Estimated
Tue 03:00:15 PM 27.5479 39.3015 290° West  Level Estimated
Tue 03:01:15 PM 27.5820 39.1938 290° West  Level Estimated
Tue 03:02:15 PM 27.6159 39.0860 290° West  Level Estimated
Tue 03:03:15 PM 27.6498 38.9782 290° West  Level Estimated
Tue 03:04:15 PM 27.6836 38.8703 289° West  Level Estimated
Tue 03:05:15 PM 27.7174 38.7624 289° West  Level Estimated
Tue 03:06:15 PM 27.7510 38.6543 289° West  Level Estimated
Tue 03:07:15 PM 27.7846 38.5462 289° West  Level Estimated
Tue 03:08:15 PM 27.8180 38.4381 289° West  Level Estimated
Tue 03:09:15 PM 27.8514 38.3299 289° West  Level Estimated
Tue 03:10:15 PM 27.8847 38.2216 289° West  Level Estimated
Tue 03:11:15 PM 27.9180 38.1132 289° West  Level Estimated
Tue 03:12:15 PM 27.9511 38.0048 289° West  Level Estimated
Tue 03:13:15 PM 27.9841 37.8963 289° West  Level Estimated
Tue 03:14:15 PM 28.0171 37.7878 289° West  Level Estimated
Tue 03:15:15 PM 28.0500 37.6792 289° West  Level Estimated
Tue 03:16:15 PM 28.0828 37.5705 289° West  Level Estimated
Tue 03:17:15 PM 28.1155 37.4617 289° West  Level Estimated
Tue 03:18:15 PM 28.1481 37.3529 289° West  Level Estimated
Tue 03:19:15 PM 28.1807 37.2440 289° West  Level Estimated
Tue 03:20:15 PM 28.2131 37.1351 289° West  Level Estimated
Tue 03:21:15 PM 28.2455 37.0261 289° West  Level Estimated
Tue 03:22:15 PM 28.2778 36.9170 289° West  Level Estimated
Tue 03:23:15 PM 28.3099 36.8078 288° West  Level Estimated
Tue 03:24:15 PM 28.3421 36.6986 288° West  Level Estimated
Tue 03:25:15 PM 28.3741 36.5893 108° East  Level Estimated
Tue 03:26:15 PM 28.3421 36.6986 288° West  Level Estimated
Tue 03:27:15 PM 28.3741 36.5893 108° East  Level Estimated
Tue 03:28:15 PM 28.3421 36.6986 288° West  Level Estimated
Tue 03:29:15 PM 28.3741 36.5893 108° East  Level Estimated
Tue 03:30:15 PM 28.3421 36.6986 288° West  Level Estimated
Tue 03:31:15 PM 28.3741 36.5893 108° East  Level Estimated
Tue 03:32:15 PM 28.3421 36.6986 288° West  Level Estimated
Tue 03:33:15 PM 28.3741 36.5893 108° East  Level Estimated
Tue 03:34:15 PM 28.3421 36.6986 288° West  Level Estimated
Tue 03:35:15 PM 28.3741 36.5893 108° East  Level Estimated
Tue 03:36:15 PM 28.3421 36.6986 288° West  Level Estimated
Tue 03:37:15 PM 28.3741 36.5893 108° East  Level Estimated
Tue 03:38:15 PM 28.3421 36.6986 288° West  Level Estimated
Tue 03:39:15 PM 28.3741 36.5893 108° East  Level Estimated
Tue 03:40:15 PM 28.3421 36.6986 108° East  Level Estimated

Login

Don't have an account? Register now (free) for customized features, flight alerts, and more!